sensor_id;sensor_type;location;lat;lon;timestamp;P1;durP1;ratioP1;P2;durP2;ratioP2
83487;SDS011;73424;49.994;8.184;2024-01-10T00:00:30;14.17;;;5.50;;
83487;SDS011;73424;49.994;8.184;2024-01-10T00:02:55;12.60;;;5.20;;
83487;SDS011;73424;49.994;8.184;2024-01-10T00:05:20;12.53;;;6.27;;
83487;SDS011;73424;49.994;8.184;2024-01-10T00:07:46;12.02;;;5.60;;
83487;SDS011;73424;49.994;8.184;2024-01-10T00:10:11;12.77;;;4.93;;
83487;SDS011;73424;49.994;8.184;2024-01-10T00:12:36;12.90;;;5.68;;
83487;SDS011;73424;49.994;8.184;2024-01-10T00:15:05;12.48;;;5.20;;
83487;SDS011;73424;49.994;8.184;2024-01-10T00:17:31;9.73;;;4.93;;
83487;SDS011;73424;49.994;8.184;2024-01-10T00:19:56;12.85;;;5.25;;
83487;SDS011;73424;49.994;8.184;2024-01-10T00:22:22;12.30;;;5.23;;
83487;SDS011;73424;49.994;8.184;2024-01-10T00:24:47;10.57;;;6.10;;
83487;SDS011;73424;49.994;8.184;2024-01-10T00:27:12;13.27;;;6.40;;
83487;SDS011;73424;49.994;8.184;2024-01-10T00:29:38;12.60;;;5.68;;
83487;SDS011;73424;49.994;8.184;2024-01-10T00:32:03;11.75;;;5.93;;
83487;SDS011;73424;49.994;8.184;2024-01-10T00:34:29;10.88;;;5.82;;
83487;SDS011;73424;49.994;8.184;2024-01-10T00:36:54;12.25;;;6.03;;
83487;SDS011;73424;49.994;8.184;2024-01-10T00:39:20;11.80;;;5.77;;
83487;SDS011;73424;49.994;8.184;2024-01-10T00:41:45;13.90;;;5.90;;
83487;SDS011;73424;49.994;8.184;2024-01-10T00:44:10;14.23;;;5.53;;
83487;SDS011;73424;49.994;8.184;2024-01-10T00:46:35;14.57;;;5.70;;
83487;SDS011;73424;49.994;8.184;2024-01-10T00:49:01;13.73;;;6.55;;
83487;SDS011;73424;49.994;8.184;2024-01-10T00:51:26;11.23;;;5.83;;
83487;SDS011;73424;49.994;8.184;2024-01-10T00:53:51;13.17;;;5.47;;
83487;SDS011;73424;49.994;8.184;2024-01-10T00:56:17;15.23;;;6.47;;
83487;SDS011;73424;49.994;8.184;2024-01-10T00:58:42;11.03;;;6.60;;
83487;SDS011;73424;49.994;8.184;2024-01-10T01:01:07;16.03;;;6.63;;
83487;SDS011;73424;49.994;8.184;2024-01-10T01:03:33;14.68;;;6.20;;
83487;SDS011;73424;49.994;8.184;2024-01-10T01:05:58;13.90;;;6.32;;
83487;SDS011;73424;49.994;8.184;2024-01-10T01:08:23;11.00;;;6.25;;
83487;SDS011;73424;49.994;8.184;2024-01-10T01:10:49;15.50;;;7.20;;
83487;SDS011;73424;49.994;8.184;2024-01-10T01:13:14;15.30;;;6.30;;
83487;SDS011;73424;49.994;8.184;2024-01-10T01:15:39;14.77;;;6.50;;
83487;SDS011;73424;49.994;8.184;2024-01-10T01:18:05;15.35;;;7.80;;
83487;SDS011;73424;49.994;8.184;2024-01-10T01:20:31;13.90;;;6.32;;
83487;SDS011;73424;49.994;8.184;2024-01-10T01:22:57;14.73;;;5.97;;
83487;SDS011;73424;49.994;8.184;2024-01-10T01:25:23;15.45;;;7.80;;
83487;SDS011;73424;49.994;8.184;2024-01-10T01:27:48;14.83;;;7.37;;
83487;SDS011;73424;49.994;8.184;2024-01-10T01:30:13;13.83;;;7.03;;
83487;SDS011;73424;49.994;8.184;2024-01-10T01:32:39;14.32;;;6.07;;
83487;SDS011;73424;49.994;8.184;2024-01-10T01:35:04;18.07;;;7.63;;
83487;SDS011;73424;49.994;8.184;2024-01-10T01:37:30;16.90;;;6.80;;
83487;SDS011;73424;49.994;8.184;2024-01-10T01:39:55;16.40;;;6.93;;
83487;SDS011;73424;49.994;8.184;2024-01-10T01:42:20;15.57;;;7.00;;
83487;SDS011;73424;49.994;8.184;2024-01-10T01:44:46;17.85;;;7.88;;
83487;SDS011;73424;49.994;8.184;2024-01-10T01:47:11;14.50;;;7.13;;
83487;SDS011;73424;49.994;8.184;2024-01-10T01:49:36;16.15;;;7.63;;
83487;SDS011;73424;49.994;8.184;2024-01-10T01:52:02;17.25;;;8.32;;
83487;SDS011;73424;49.994;8.184;2024-01-10T01:54:28;16.33;;;7.97;;
83487;SDS011;73424;49.994;8.184;2024-01-10T01:56:55;17.48;;;8.27;;
83487;SDS011;73424;49.994;8.184;2024-01-10T01:59:21;18.75;;;7.80;;
83487;SDS011;73424;49.994;8.184;2024-01-10T02:01:46;17.95;;;7.75;;
83487;SDS011;73424;49.994;8.184;2024-01-10T02:04:12;12.40;;;6.25;;
83487;SDS011;73424;49.994;8.184;2024-01-10T02:13:21;15.93;;;7.05;;
83487;SDS011;73424;49.994;8.184;2024-01-10T02:15:47;15.73;;;7.95;;
83487;SDS011;73424;49.994;8.184;2024-01-10T02:18:12;15.30;;;7.90;;
83487;SDS011;73424;49.994;8.184;2024-01-10T02:20:39;16.60;;;8.52;;
83487;SDS011;73424;49.994;8.184;2024-01-10T02:23:04;20.27;;;8.73;;
83487;SDS011;73424;49.994;8.184;2024-01-10T02:25:30;20.37;;;8.07;;
83487;SDS011;73424;49.994;8.184;2024-01-10T02:27:55;20.60;;;8.87;;
83487;SDS011;73424;49.994;8.184;2024-01-10T02:30:20;18.67;;;8.43;;
83487;SDS011;73424;49.994;8.184;2024-01-10T02:32:46;21.00;;;8.18;;
83487;SDS011;73424;49.994;8.184;2024-01-10T02:35:11;16.50;;;8.27;;
83487;SDS011;73424;49.994;8.184;2024-01-10T02:37:36;18.20;;;7.80;;
83487;SDS011;73424;49.994;8.184;2024-01-10T02:40:02;16.75;;;8.05;;
83487;SDS011;73424;49.994;8.184;2024-01-10T02:42:27;19.15;;;9.45;;
83487;SDS011;73424;49.994;8.184;2024-01-10T02:44:53;17.67;;;8.40;;
83487;SDS011;73424;49.994;8.184;2024-01-10T02:47:19;18.10;;;8.10;;
83487;SDS011;73424;49.994;8.184;2024-01-10T02:49:44;19.40;;;8.23;;
83487;SDS011;73424;49.994;8.184;2024-01-10T02:52:09;19.50;;;9.60;;
83487;SDS011;73424;49.994;8.184;2024-01-10T02:54:34;20.70;;;9.63;;
83487;SDS011;73424;49.994;8.184;2024-01-10T02:57:00;20.80;;;8.67;;
83487;SDS011;73424;49.994;8.184;2024-01-10T02:59:25;19.20;;;8.73;;
83487;SDS011;73424;49.994;8.184;2024-01-10T03:01:50;22.52;;;9.77;;
83487;SDS011;73424;49.994;8.184;2024-01-10T03:04:16;22.20;;;9.70;;
83487;SDS011;73424;49.994;8.184;2024-01-10T03:06:41;21.03;;;8.57;;
83487;SDS011;73424;49.994;8.184;2024-01-10T03:09:06;20.20;;;9.15;;
83487;SDS011;73424;49.994;8.184;2024-01-10T03:11:32;19.98;;;8.75;;
83487;SDS011;73424;49.994;8.184;2024-01-10T03:14:04;17.70;;;8.55;;
83487;SDS011;73424;49.994;8.184;2024-01-10T03:16:33;19.67;;;8.35;;
83487;SDS011;73424;49.994;8.184;2024-01-10T03:18:58;24.27;;;9.23;;
83487;SDS011;73424;49.994;8.184;2024-01-10T03:21:23;20.40;;;9.13;;
83487;SDS011;73424;49.994;8.184;2024-01-10T03:23:51;19.77;;;8.55;;
83487;SDS011;73424;49.994;8.184;2024-01-10T03:26:16;23.88;;;10.05;;
83487;SDS011;73424;49.994;8.184;2024-01-10T03:28:42;20.73;;;10.52;;
83487;SDS011;73424;49.994;8.184;2024-01-10T03:31:07;19.50;;;8.03;;
83487;SDS011;73424;49.994;8.184;2024-01-10T03:33:32;20.15;;;8.13;;
83487;SDS011;73424;49.994;8.184;2024-01-10T03:35:58;21.88;;;9.20;;
83487;SDS011;73424;49.994;8.184;2024-01-10T03:38:23;21.27;;;9.20;;
83487;SDS011;73424;49.994;8.184;2024-01-10T03:40:48;21.30;;;9.68;;
83487;SDS011;73424;49.994;8.184;2024-01-10T03:43:13;19.03;;;9.33;;
83487;SDS011;73424;49.994;8.184;2024-01-10T03:45:39;19.03;;;9.03;;
83487;SDS011;73424;49.994;8.184;2024-01-10T03:48:04;22.23;;;10.77;;
83487;SDS011;73424;49.994;8.184;2024-01-10T03:50:30;21.30;;;8.77;;
83487;SDS011;73424;49.994;8.184;2024-01-10T03:52:56;18.30;;;9.83;;
83487;SDS011;73424;49.994;8.184;2024-01-10T03:55:21;22.10;;;10.00;;
83487;SDS011;73424;49.994;8.184;2024-01-10T03:57:46;15.67;;;7.60;;
83487;SDS011;73424;49.994;8.184;2024-01-10T04:00:12;20.80;;;8.97;;
83487;SDS011;73424;49.994;8.184;2024-01-10T04:02:37;20.77;;;9.55;;
83487;SDS011;73424;49.994;8.184;2024-01-10T04:05:05;19.88;;;9.00;;
83487;SDS011;73424;49.994;8.184;2024-01-10T04:07:35;18.30;;;10.18;;
83487;SDS011;73424;49.994;8.184;2024-01-10T04:10:02;22.73;;;10.30;;
83487;SDS011;73424;49.994;8.184;2024-01-10T04:12:28;21.60;;;9.10;;
83487;SDS011;73424;49.994;8.184;2024-01-10T04:14:53;20.60;;;10.45;;
83487;SDS011;73424;49.994;8.184;2024-01-10T04:17:18;20.90;;;9.63;;
83487;SDS011;73424;49.994;8.184;2024-01-10T04:19:44;19.10;;;9.60;;
83487;SDS011;73424;49.994;8.184;2024-01-10T04:22:09;20.17;;;9.77;;
83487;SDS011;73424;49.994;8.184;2024-01-10T04:24:34;22.13;;;10.00;;
83487;SDS011;73424;49.994;8.184;2024-01-10T04:26:59;22.80;;;10.83;;
83487;SDS011;73424;49.994;8.184;2024-01-10T04:29:25;18.00;;;8.50;;
83487;SDS011;73424;49.994;8.184;2024-01-10T04:31:50;20.77;;;9.67;;
83487;SDS011;73424;49.994;8.184;2024-01-10T04:34:15;20.90;;;10.13;;
83487;SDS011;73424;49.994;8.184;2024-01-10T04:36:40;21.80;;;9.97;;
83487;SDS011;73424;49.994;8.184;2024-01-10T04:39:06;21.07;;;10.47;;
83487;SDS011;73424;49.994;8.184;2024-01-10T04:41:31;20.30;;;9.23;;
83487;SDS011;73424;49.994;8.184;2024-01-10T04:43:56;20.38;;;9.25;;
83487;SDS011;73424;49.994;8.184;2024-01-10T04:46:22;21.98;;;9.80;;
83487;SDS011;73424;49.994;8.184;2024-01-10T04:48:47;23.52;;;10.52;;
83487;SDS011;73424;49.994;8.184;2024-01-10T04:51:12;21.40;;;9.17;;
83487;SDS011;73424;49.994;8.184;2024-01-10T04:53:39;20.45;;;9.57;;
83487;SDS011;73424;49.994;8.184;2024-01-10T04:56:05;19.43;;;8.73;;
83487;SDS011;73424;49.994;8.184;2024-01-10T04:58:30;24.10;;;9.98;;
83487;SDS011;73424;49.994;8.184;2024-01-10T05:00:57;18.75;;;8.95;;
83487;SDS011;73424;49.994;8.184;2024-01-10T05:03:23;19.63;;;9.30;;
83487;SDS011;73424;49.994;8.184;2024-01-10T05:05:48;18.67;;;9.00;;
83487;SDS011;73424;49.994;8.184;2024-01-10T05:08:13;20.43;;;10.10;;
83487;SDS011;73424;49.994;8.184;2024-01-10T05:10:39;20.17;;;8.80;;
83487;SDS011;73424;49.994;8.184;2024-01-10T05:13:04;19.20;;;9.13;;
83487;SDS011;73424;49.994;8.184;2024-01-10T05:15:29;20.03;;;8.90;;
83487;SDS011;73424;49.994;8.184;2024-01-10T05:17:54;22.20;;;10.40;;
83487;SDS011;73424;49.994;8.184;2024-01-10T05:20:20;20.73;;;9.75;;
83487;SDS011;73424;49.994;8.184;2024-01-10T05:22:46;21.13;;;9.37;;
83487;SDS011;73424;49.994;8.184;2024-01-10T05:25:11;23.40;;;9.20;;
83487;SDS011;73424;49.994;8.184;2024-01-10T05:27:37;18.90;;;10.00;;
83487;SDS011;73424;49.994;8.184;2024-01-10T05:30:03;24.42;;;9.90;;
83487;SDS011;73424;49.994;8.184;2024-01-10T05:32:28;22.17;;;9.40;;
83487;SDS011;73424;49.994;8.184;2024-01-10T05:34:54;18.85;;;8.55;;
83487;SDS011;73424;49.994;8.184;2024-01-10T05:37:19;19.35;;;10.55;;
83487;SDS011;73424;49.994;8.184;2024-01-10T05:39:44;23.93;;;9.73;;
83487;SDS011;73424;49.994;8.184;2024-01-10T05:42:10;20.33;;;9.17;;
83487;SDS011;73424;49.994;8.184;2024-01-10T05:44:36;19.08;;;8.73;;
83487;SDS011;73424;49.994;8.184;2024-01-10T05:47:01;22.67;;;8.77;;
83487;SDS011;73424;49.994;8.184;2024-01-10T05:49:27;19.63;;;9.60;;
83487;SDS011;73424;49.994;8.184;2024-01-10T05:51:52;18.23;;;8.68;;
83487;SDS011;73424;49.994;8.184;2024-01-10T05:54:18;21.23;;;9.13;;
83487;SDS011;73424;49.994;8.184;2024-01-10T05:56:43;23.17;;;11.00;;
83487;SDS011;73424;49.994;8.184;2024-01-10T05:59:09;22.05;;;8.85;;
83487;SDS011;73424;49.994;8.184;2024-01-10T06:01:36;19.90;;;9.15;;
83487;SDS011;73424;49.994;8.184;2024-01-10T06:04:02;20.70;;;8.57;;
83487;SDS011;73424;49.994;8.184;2024-01-10T06:06:27;21.73;;;9.93;;
83487;SDS011;73424;49.994;8.184;2024-01-10T06:08:52;22.73;;;9.88;;
83487;SDS011;73424;49.994;8.184;2024-01-10T06:11:18;24.67;;;10.53;;
83487;SDS011;73424;49.994;8.184;2024-01-10T06:13:43;20.00;;;9.10;;
83487;SDS011;73424;49.994;8.184;2024-01-10T06:16:08;25.20;;;10.43;;
83487;SDS011;73424;49.994;8.184;2024-01-10T06:18:34;21.58;;;9.75;;
83487;SDS011;73424;49.994;8.184;2024-01-10T06:20:59;21.40;;;9.98;;
83487;SDS011;73424;49.994;8.184;2024-01-10T06:23:24;21.45;;;9.93;;
83487;SDS011;73424;49.994;8.184;2024-01-10T06:25:50;23.53;;;10.00;;
83487;SDS011;73424;49.994;8.184;2024-01-10T06:28:15;24.80;;;8.93;;
83487;SDS011;73424;49.994;8.184;2024-01-10T06:30:40;16.37;;;8.20;;
83487;SDS011;73424;49.994;8.184;2024-01-10T06:33:06;21.23;;;9.48;;
83487;SDS011;73424;49.994;8.184;2024-01-10T06:35:32;19.20;;;9.13;;
83487;SDS011;73424;49.994;8.184;2024-01-10T06:37:57;19.83;;;10.32;;
83487;SDS011;73424;49.994;8.184;2024-01-10T06:40:22;20.60;;;9.63;;
83487;SDS011;73424;49.994;8.184;2024-01-10T06:42:48;22.42;;;9.32;;
83487;SDS011;73424;49.994;8.184;2024-01-10T06:45:13;21.30;;;8.55;;
83487;SDS011;73424;49.994;8.184;2024-01-10T06:47:39;18.70;;;8.18;;
83487;SDS011;73424;49.994;8.184;2024-01-10T06:50:04;21.10;;;8.77;;
83487;SDS011;73424;49.994;8.184;2024-01-10T06:52:30;16.45;;;7.95;;
83487;SDS011;73424;49.994;8.184;2024-01-10T06:54:56;20.30;;;9.57;;
83487;SDS011;73424;49.994;8.184;2024-01-10T06:57:22;18.13;;;9.48;;
83487;SDS011;73424;49.994;8.184;2024-01-10T06:59:47;20.75;;;10.52;;
83487;SDS011;73424;49.994;8.184;2024-01-10T07:02:12;21.40;;;9.13;;
83487;SDS011;73424;49.994;8.184;2024-01-10T07:04:38;19.80;;;9.43;;
83487;SDS011;73424;49.994;8.184;2024-01-10T07:07:03;18.13;;;9.07;;
83487;SDS011;73424;49.994;8.184;2024-01-10T07:09:29;20.75;;;9.18;;
83487;SDS011;73424;49.994;8.184;2024-01-10T07:11:54;19.77;;;8.98;;
83487;SDS011;73424;49.994;8.184;2024-01-10T07:14:19;23.92;;;10.25;;
83487;SDS011;73424;49.994;8.184;2024-01-10T07:16:45;16.87;;;9.37;;
83487;SDS011;73424;49.994;8.184;2024-01-10T07:19:11;17.33;;;7.85;;
83487;SDS011;73424;49.994;8.184;2024-01-10T07:21:38;21.13;;;8.80;;
83487;SDS011;73424;49.994;8.184;2024-01-10T07:24:04;20.67;;;8.93;;
83487;SDS011;73424;49.994;8.184;2024-01-10T07:26:30;20.30;;;11.00;;
83487;SDS011;73424;49.994;8.184;2024-01-10T07:28:55;23.60;;;9.77;;
83487;SDS011;73424;49.994;8.184;2024-01-10T07:31:20;18.30;;;9.30;;
83487;SDS011;73424;49.994;8.184;2024-01-10T07:33:45;22.40;;;9.93;;
83487;SDS011;73424;49.994;8.184;2024-01-10T07:36:11;20.83;;;8.53;;
83487;SDS011;73424;49.994;8.184;2024-01-10T07:38:36;18.45;;;9.05;;
83487;SDS011;73424;49.994;8.184;2024-01-10T07:41:01;19.00;;;9.77;;
83487;SDS011;73424;49.994;8.184;2024-01-10T07:43:27;18.85;;;9.27;;
83487;SDS011;73424;49.994;8.184;2024-01-10T07:45:52;16.88;;;8.05;;
83487;SDS011;73424;49.994;8.184;2024-01-10T07:48:18;21.30;;;9.23;;
83487;SDS011;73424;49.994;8.184;2024-01-10T07:50:43;21.08;;;9.13;;
83487;SDS011;73424;49.994;8.184;2024-01-10T07:53:09;21.30;;;9.25;;
83487;SDS011;73424;49.994;8.184;2024-01-10T07:55:35;21.13;;;9.90;;
83487;SDS011;73424;49.994;8.184;2024-01-10T07:58:00;21.70;;;9.60;;
83487;SDS011;73424;49.994;8.184;2024-01-10T08:00:26;20.50;;;9.93;;
83487;SDS011;73424;49.994;8.184;2024-01-10T08:02:51;22.20;;;9.73;;
83487;SDS011;73424;49.994;8.184;2024-01-10T08:05:16;23.70;;;9.47;;
83487;SDS011;73424;49.994;8.184;2024-01-10T08:07:42;19.15;;;8.73;;
83487;SDS011;73424;49.994;8.184;2024-01-10T08:10:08;13.10;;;7.30;;
83487;SDS011;73424;49.994;8.184;2024-01-10T08:12:38;20.75;;;10.27;;
83487;SDS011;73424;49.994;8.184;2024-01-10T08:15:06;18.85;;;9.45;;
83487;SDS011;73424;49.994;8.184;2024-01-10T08:17:32;19.25;;;9.02;;
83487;SDS011;73424;49.994;8.184;2024-01-10T08:19:58;17.27;;;8.63;;
83487;SDS011;73424;49.994;8.184;2024-01-10T08:22:24;18.80;;;8.70;;
83487;SDS011;73424;49.994;8.184;2024-01-10T08:24:49;17.80;;;9.27;;
83487;SDS011;73424;49.994;8.184;2024-01-10T08:27:15;21.63;;;10.70;;
83487;SDS011;73424;49.994;8.184;2024-01-10T08:29:42;26.17;;;10.38;;
83487;SDS011;73424;49.994;8.184;2024-01-10T08:32:07;17.65;;;8.93;;
83487;SDS011;73424;49.994;8.184;2024-01-10T08:34:32;22.57;;;9.00;;
83487;SDS011;73424;49.994;8.184;2024-01-10T08:36:58;17.08;;;8.63;;
83487;SDS011;73424;49.994;8.184;2024-01-10T08:39:23;19.37;;;9.23;;
83487;SDS011;73424;49.994;8.184;2024-01-10T08:41:50;19.70;;;8.85;;
83487;SDS011;73424;49.994;8.184;2024-01-10T08:44:18;18.13;;;8.43;;
83487;SDS011;73424;49.994;8.184;2024-01-10T08:46:43;18.27;;;8.88;;
83487;SDS011;73424;49.994;8.184;2024-01-10T08:49:09;23.65;;;9.68;;
83487;SDS011;73424;49.994;8.184;2024-01-10T08:51:34;21.88;;;10.00;;
83487;SDS011;73424;49.994;8.184;2024-01-10T08:54:00;16.60;;;8.60;;
83487;SDS011;73424;49.994;8.184;2024-01-10T08:56:25;21.90;;;9.70;;
83487;SDS011;73424;49.994;8.184;2024-01-10T08:58:51;19.95;;;9.25;;
83487;SDS011;73424;49.994;8.184;2024-01-10T09:01:17;16.48;;;8.63;;
83487;SDS011;73424;49.994;8.184;2024-01-10T09:03:42;17.83;;;10.17;;
83487;SDS011;73424;49.994;8.184;2024-01-10T09:06:07;19.03;;;9.87;;
83487;SDS011;73424;49.994;8.184;2024-01-10T09:08:33;18.27;;;9.63;;
83487;SDS011;73424;49.994;8.184;2024-01-10T09:10:59;19.55;;;9.30;;
83487;SDS011;73424;49.994;8.184;2024-01-10T09:13:24;19.25;;;8.30;;
83487;SDS011;73424;49.994;8.184;2024-01-10T09:15:49;19.30;;;9.33;;
83487;SDS011;73424;49.994;8.184;2024-01-10T09:18:15;19.47;;;9.47;;
83487;SDS011;73424;49.994;8.184;2024-01-10T09:20:40;19.50;;;10.43;;
83487;SDS011;73424;49.994;8.184;2024-01-10T09:23:05;18.30;;;8.70;;
83487;SDS011;73424;49.994;8.184;2024-01-10T09:25:30;17.40;;;8.20;;
83487;SDS011;73424;49.994;8.184;2024-01-10T09:27:56;19.73;;;8.25;;
83487;SDS011;73424;49.994;8.184;2024-01-10T09:30:22;19.52;;;9.18;;
83487;SDS011;73424;49.994;8.184;2024-01-10T09:32:48;19.27;;;9.80;;
83487;SDS011;73424;49.994;8.184;2024-01-10T09:35:14;20.00;;;9.45;;
83487;SDS011;73424;49.994;8.184;2024-01-10T09:37:39;17.52;;;8.15;;
83487;SDS011;73424;49.994;8.184;2024-01-10T09:40:05;18.23;;;8.20;;
83487;SDS011;73424;49.994;8.184;2024-01-10T09:42:34;17.83;;;9.32;;
83487;SDS011;73424;49.994;8.184;2024-01-10T09:45:01;17.63;;;8.07;;
83487;SDS011;73424;49.994;8.184;2024-01-10T09:47:28;21.60;;;10.10;;
83487;SDS011;73424;49.994;8.184;2024-01-10T09:49:56;17.50;;;8.32;;
83487;SDS011;73424;49.994;8.184;2024-01-10T09:52:26;18.55;;;8.65;;
83487;SDS011;73424;49.994;8.184;2024-01-10T09:54:56;20.08;;;8.15;;
83487;SDS011;73424;49.994;8.184;2024-01-10T09:57:23;20.30;;;9.82;;
83487;SDS011;73424;49.994;8.184;2024-01-10T09:59:49;17.20;;;9.63;;
83487;SDS011;73424;49.994;8.184;2024-01-10T10:02:16;18.75;;;9.15;;
83487;SDS011;73424;49.994;8.184;2024-01-10T10:04:44;18.08;;;8.10;;
83487;SDS011;73424;49.994;8.184;2024-01-10T10:07:49;19.25;;;9.27;;
83487;SDS011;73424;49.994;8.184;2024-01-10T10:10:15;20.35;;;9.18;;
83487;SDS011;73424;49.994;8.184;2024-01-10T10:12:42;17.33;;;8.80;;
83487;SDS011;73424;49.994;8.184;2024-01-10T10:15:17;19.30;;;9.68;;
83487;SDS011;73424;49.994;8.184;2024-01-10T10:17:44;14.85;;;6.28;;
83487;SDS011;73424;49.994;8.184;2024-01-10T10:20:20;18.50;;;7.07;;
83487;SDS011;73424;49.994;8.184;2024-01-10T10:22:57;21.65;;;9.40;;
83487;SDS011;73424;49.994;8.184;2024-01-10T10:25:36;15.32;;;7.38;;
83487;SDS011;73424;49.994;8.184;2024-01-10T10:28:07;18.30;;;7.32;;
83487;SDS011;73424;49.994;8.184;2024-01-10T10:30:32;20.60;;;8.93;;
83487;SDS011;73424;49.994;8.184;2024-01-10T10:32:58;21.95;;;9.02;;
83487;SDS011;73424;49.994;8.184;2024-01-10T10:35:24;21.05;;;9.20;;
83487;SDS011;73424;49.994;8.184;2024-01-10T10:37:50;22.20;;;10.82;;
83487;SDS011;73424;49.994;8.184;2024-01-10T10:40:17;19.58;;;9.77;;
83487;SDS011;73424;49.994;8.184;2024-01-10T10:42:44;16.40;;;9.50;;
83487;SDS011;73424;49.994;8.184;2024-01-10T10:45:12;18.40;;;10.35;;
83487;SDS011;73424;49.994;8.184;2024-01-10T10:47:41;19.00;;;9.40;;
83487;SDS011;73424;49.994;8.184;2024-01-10T10:50:08;20.27;;;10.68;;
83487;SDS011;73424;49.994;8.184;2024-01-10T10:52:39;18.83;;;9.40;;
83487;SDS011;73424;49.994;8.184;2024-01-10T10:55:09;18.67;;;8.73;;
83487;SDS011;73424;49.994;8.184;2024-01-10T10:57:37;23.17;;;9.13;;
83487;SDS011;73424;49.994;8.184;2024-01-10T11:00:05;17.17;;;9.60;;
83487;SDS011;73424;49.994;8.184;2024-01-10T11:02:32;18.05;;;9.50;;
83487;SDS011;73424;49.994;8.184;2024-01-10T11:04:57;17.77;;;8.57;;
83487;SDS011;73424;49.994;8.184;2024-01-10T11:07:24;21.23;;;10.05;;
83487;SDS011;73424;49.994;8.184;2024-01-10T11:09:50;17.48;;;8.60;;
83487;SDS011;73424;49.994;8.184;2024-01-10T11:23:42;17.52;;;8.02;;
83487;SDS011;73424;49.994;8.184;2024-01-10T11:26:10;15.98;;;8.27;;
83487;SDS011;73424;49.994;8.184;2024-01-10T11:28:36;16.00;;;6.88;;
83487;SDS011;73424;49.994;8.184;2024-01-10T11:31:02;19.33;;;9.95;;
83487;SDS011;73424;49.994;8.184;2024-01-10T11:33:32;19.55;;;10.45;;
83487;SDS011;73424;49.994;8.184;2024-01-10T11:36:08;15.90;;;9.45;;
83487;SDS011;73424;49.994;8.184;2024-01-10T11:38:38;17.65;;;10.13;;
83487;SDS011;73424;49.994;8.184;2024-01-10T11:46:33;20.85;;;9.10;;
83487;SDS011;73424;49.994;8.184;2024-01-10T11:51:35;20.98;;;10.27;;
83487;SDS011;73424;49.994;8.184;2024-01-10T11:54:01;14.55;;;8.07;;
83487;SDS011;73424;49.994;8.184;2024-01-10T11:56:37;17.98;;;8.73;;
83487;SDS011;73424;49.994;8.184;2024-01-10T11:59:03;20.08;;;8.18;;
83487;SDS011;73424;49.994;8.184;2024-01-10T12:01:38;17.63;;;8.20;;
83487;SDS011;73424;49.994;8.184;2024-01-10T12:04:05;15.32;;;7.13;;
83487;SDS011;73424;49.994;8.184;2024-01-10T12:06:36;16.95;;;8.48;;
83487;SDS011;73424;49.994;8.184;2024-01-10T12:09:03;17.20;;;8.70;;
83487;SDS011;73424;49.994;8.184;2024-01-10T12:11:39;16.50;;;7.45;;
83487;SDS011;73424;49.994;8.184;2024-01-10T12:14:05;15.93;;;8.15;;
83487;SDS011;73424;49.994;8.184;2024-01-10T12:16:34;18.40;;;8.30;;
83487;SDS011;73424;49.994;8.184;2024-01-10T12:18:59;15.00;;;8.15;;
83487;SDS011;73424;49.994;8.184;2024-01-10T12:21:24;16.53;;;8.87;;
83487;SDS011;73424;49.994;8.184;2024-01-10T12:23:49;21.23;;;9.40;;
83487;SDS011;73424;49.994;8.184;2024-01-10T12:26:16;13.00;;;6.30;;
83487;SDS011;73424;49.994;8.184;2024-01-10T12:28:42;19.42;;;7.60;;
83487;SDS011;73424;49.994;8.184;2024-01-10T12:31:21;15.60;;;7.25;;
83487;SDS011;73424;49.994;8.184;2024-01-10T12:33:50;12.98;;;6.53;;
83487;SDS011;73424;49.994;8.184;2024-01-10T12:36:16;14.20;;;6.70;;
83487;SDS011;73424;49.994;8.184;2024-01-10T12:38:43;15.15;;;6.03;;
83487;SDS011;73424;49.994;8.184;2024-01-10T12:41:11;12.40;;;6.88;;
83487;SDS011;73424;49.994;8.184;2024-01-10T12:43:38;14.73;;;6.60;;
83487;SDS011;73424;49.994;8.184;2024-01-10T12:46:07;13.27;;;6.83;;
83487;SDS011;73424;49.994;8.184;2024-01-10T12:48:35;15.82;;;7.25;;
83487;SDS011;73424;49.994;8.184;2024-01-10T12:51:03;14.43;;;7.30;;
83487;SDS011;73424;49.994;8.184;2024-01-10T12:53:33;14.52;;;6.65;;
83487;SDS011;73424;49.994;8.184;2024-01-10T12:56:09;13.27;;;7.00;;
83487;SDS011;73424;49.994;8.184;2024-01-10T12:58:39;11.35;;;5.35;;
83487;SDS011;73424;49.994;8.184;2024-01-10T13:01:05;15.45;;;7.43;;
83487;SDS011;73424;49.994;8.184;2024-01-10T13:03:30;18.50;;;7.32;;
83487;SDS011;73424;49.994;8.184;2024-01-10T13:05:56;18.42;;;8.10;;
83487;SDS011;73424;49.994;8.184;2024-01-10T13:08:21;13.30;;;6.57;;
83487;SDS011;73424;49.994;8.184;2024-01-10T13:10:47;13.50;;;7.93;;
83487;SDS011;73424;49.994;8.184;2024-01-10T13:13:13;14.02;;;7.55;;
83487;SDS011;73424;49.994;8.184;2024-01-10T13:15:39;17.42;;;8.10;;
83487;SDS011;73424;49.994;8.184;2024-01-10T13:18:04;16.20;;;7.60;;
83487;SDS011;73424;49.994;8.184;2024-01-10T13:20:30;16.00;;;9.60;;
83487;SDS011;73424;49.994;8.184;2024-01-10T13:22:55;19.40;;;8.47;;
83487;SDS011;73424;49.994;8.184;2024-01-10T13:25:20;16.58;;;8.52;;
83487;SDS011;73424;49.994;8.184;2024-01-10T13:27:49;16.00;;;8.57;;
83487;SDS011;73424;49.994;8.184;2024-01-10T13:30:15;16.65;;;7.78;;
83487;SDS011;73424;49.994;8.184;2024-01-10T13:32:41;14.73;;;7.43;;
83487;SDS011;73424;49.994;8.184;2024-01-10T13:35:06;18.50;;;7.70;;
83487;SDS011;73424;49.994;8.184;2024-01-10T13:37:32;16.75;;;8.50;;
83487;SDS011;73424;49.994;8.184;2024-01-10T13:39:57;15.50;;;7.85;;
83487;SDS011;73424;49.994;8.184;2024-01-10T13:42:23;18.55;;;8.30;;
83487;SDS011;73424;49.994;8.184;2024-01-10T13:44:48;17.70;;;8.48;;
83487;SDS011;73424;49.994;8.184;2024-01-10T13:47:14;14.45;;;7.80;;
83487;SDS011;73424;49.994;8.184;2024-01-10T13:49:40;14.38;;;8.30;;
83487;SDS011;73424;49.994;8.184;2024-01-10T13:52:06;17.33;;;7.60;;
83487;SDS011;73424;49.994;8.184;2024-01-10T13:54:31;20.27;;;7.68;;
83487;SDS011;73424;49.994;8.184;2024-01-10T13:56:57;16.90;;;8.50;;
83487;SDS011;73424;49.994;8.184;2024-01-10T13:59:22;17.97;;;9.27;;
83487;SDS011;73424;49.994;8.184;2024-01-10T14:01:47;11.77;;;5.90;;
83487;SDS011;73424;49.994;8.184;2024-01-10T14:04:13;19.02;;;8.32;;
83487;SDS011;73424;49.994;8.184;2024-01-10T14:06:38;14.43;;;7.40;;
83487;SDS011;73424;49.994;8.184;2024-01-10T14:09:03;15.10;;;7.22;;
83487;SDS011;73424;49.994;8.184;2024-01-10T14:11:29;14.10;;;7.07;;
83487;SDS011;73424;49.994;8.184;2024-01-10T14:13:54;17.20;;;9.03;;
83487;SDS011;73424;49.994;8.184;2024-01-10T14:16:19;13.50;;;7.22;;
83487;SDS011;73424;49.994;8.184;2024-01-10T14:18:45;16.17;;;7.53;;
83487;SDS011;73424;49.994;8.184;2024-01-10T14:21:12;18.58;;;7.90;;
83487;SDS011;73424;49.994;8.184;2024-01-10T14:23:37;15.17;;;6.73;;
83487;SDS011;73424;49.994;8.184;2024-01-10T14:26:02;19.05;;;8.68;;
83487;SDS011;73424;49.994;8.184;2024-01-10T14:28:30;16.17;;;7.97;;
83487;SDS011;73424;49.994;8.184;2024-01-10T14:30:57;20.02;;;8.52;;
83487;SDS011;73424;49.994;8.184;2024-01-10T14:33:22;20.07;;;8.13;;
83487;SDS011;73424;49.994;8.184;2024-01-10T14:35:47;13.73;;;7.13;;
83487;SDS011;73424;49.994;8.184;2024-01-10T14:38:13;17.98;;;7.60;;
83487;SDS011;73424;49.994;8.184;2024-01-10T14:40:38;18.33;;;7.88;;
83487;SDS011;73424;49.994;8.184;2024-01-10T14:43:03;19.63;;;8.63;;
83487;SDS011;73424;49.994;8.184;2024-01-10T14:45:28;17.47;;;7.47;;
83487;SDS011;73424;49.994;8.184;2024-01-10T14:47:54;16.40;;;8.77;;
83487;SDS011;73424;49.994;8.184;2024-01-10T14:50:19;15.53;;;7.77;;
83487;SDS011;73424;49.994;8.184;2024-01-10T14:52:44;17.70;;;9.23;;